Time;durP1;ratioP1;P1;durP2;ratioP2;P2;SDS_P1;SDS_P2;PMS_P1;PMS_P2;Temp;Humidity;BMP_temperature;BMP_pressure;BME280_temperature;BME280_humidity;BME280_pressure;Samples;Min_cycle;Max_cycle;Signal;HPM_P1;HPM_P2
2022/02/11 00:09:06;;;;;;;26.83;15.73;;;;;;;1.50;70.95;100932.34;5048062;28;20041;-21
2022/02/11 00:11:39;;;;;;;25.20;14.70;;;;;;;1.91;69.59;100954.03;5048158;28;20067;-21
2022/02/11 00:14:05;;;;;;;25.83;15.82;;;;;;;1.83;69.21;100914.44;5048076;28;20567;-20
2022/02/11 00:16:31;;;;;;;26.60;15.27;;;;;;;1.87;69.51;100942.13;5047632;28;20476;-21
2022/02/11 00:18:59;;;;;;;29.30;16.83;;;;;;;2.02;69.34;100939.88;5048273;28;20063;-20
2022/02/11 00:21:25;;;;;;;32.22;17.58;;;;;;;2.49;66.97;100955.69;5048095;28;20043;-20
2022/02/11 00:23:50;;;;;;;75.07;39.67;;;;;;;2.00;67.78;100929.53;5047905;28;20032;-21
2022/02/11 00:26:16;;;;;;;32.03;18.08;;;;;;;2.22;67.90;100948.56;5048119;28;20029;-21
2022/02/11 00:32:17;;;;;;;27.05;15.93;;;;;;;2.04;67.82;100943.19;5047991;28;20093;-21
2022/02/11 00:34:11;;;;;;;29.35;17.73;;;;;;;2.37;66.80;100944.53;5030173;28;20446;-21
2022/02/11 00:37:00;;;;;;;34.47;20.40;;;;;;;2.49;65.88;100946.97;5047650;28;20491;-21
2022/02/11 00:40:14;;;;;;;62.10;28.63;;;;;;;1.43;69.24;100939.13;5047871;28;20600;-21
2022/02/11 01:02:13;;;;;;;33.83;19.42;;;;;;;1.15;68.59;100936.31;5046903;28;20044;-21
2022/02/11 01:04:10;;;;;;;49.80;29.67;;;;;;;1.87;66.24;100894.78;5047246;28;20432;-21
2022/02/11 01:06:36;;;;;;;39.83;25.48;;;;;;;2.03;65.95;100904.72;5049289;28;20025;-21
2022/02/11 01:09:02;;;;;;;40.63;21.85;;;;;;;1.84;66.21;100920.53;5051258;28;20136;-21
2022/02/11 01:11:40;;;;;;;41.67;20.65;;;;;;;2.04;65.43;100921.34;5051465;28;20057;-21
2022/02/11 01:14:06;;;;;;;35.47;19.08;;;;;;;1.86;66.31;100922.06;5051125;28;20036;-20
2022/02/11 01:38:09;;;;;;;28.00;14.65;;;;;;;0.55;67.85;100901.34;5051108;28;20052;-20
2022/02/11 02:22:25;;;;;;;26.42;16.08;;;;;;;0.78;71.04;100892.28;5009631;28;20076;-21
2022/02/11 02:33:30;;;;;;;25.45;15.35;;;;;;;0.74;70.19;100885.66;5009302;28;20026;-21
2022/02/11 02:57:20;;;;;;;90.35;42.83;;;;;;;1.19;67.66;100903.56;5008806;28;20036;-21
2022/02/11 04:08:24;;;;;;;24.48;14.13;;;;;;;-0.26;68.91;100901.22;5048378;28;20531;-21
2022/02/11 04:56:42;;;;;;;37.25;21.15;;;;;;;-0.07;68.18;100911.81;5047386;28;20037;-21
2022/02/11 05:01:52;;;;;;;30.13;17.30;;;;;;;0.09;67.55;100915.78;5047312;28;20101;-21
2022/02/11 05:04:17;;;;;;;58.92;33.25;;;;;;;-0.08;69.18;100904.94;5047945;28;20458;-21
2022/02/11 05:06:43;;;;;;;62.17;35.17;;;;;;;0.34;67.51;100910.09;5047268;28;20037;-23
2022/02/11 05:09:08;;;;;;;35.40;20.67;;;;;;;0.40;66.95;100904.31;5047596;28;20032;-21
2022/02/11 05:11:34;;;;;;;40.85;23.13;;;;;;;-0.75;70.17;100892.19;5047216;28;20040;-21
2022/02/11 05:13:59;;;;;;;46.00;23.85;;;;;;;-0.86;72.29;100909.59;5047318;28;20090;-21
2022/02/11 05:16:25;;;;;;;49.08;24.63;;;;;;;-0.28;70.18;100908.38;5046822;28;20037;-21
2022/02/11 05:18:50;;;;;;;37.80;21.42;;;;;;;0.01;69.51;100918.22;5047558;28;20040;-21
2022/02/11 05:21:16;;;;;;;40.60;20.88;;;;;;;0.20;68.44;100902.56;5047436;28;20094;-20
2022/02/11 05:23:41;;;;;;;44.30;20.77;;;;;;;0.05;67.64;100917.00;5047101;28;20112;-20
2022/02/11 05:26:07;;;;;;;61.58;25.90;;;;;;;-0.35;69.30;100912.47;5047167;28;20029;-21
2022/02/11 05:28:32;;;;;;;61.80;26.98;;;;;;;-0.59;70.13;100908.31;5046788;28;20037;-21
2022/02/11 05:30:58;;;;;;;67.05;27.02;;;;;;;-0.20;68.36;100916.44;5046943;28;20475;-21
2022/02/11 05:33:24;;;;;;;47.13;24.50;;;;;;;-0.20;67.96;100905.97;5047394;28;20040;-21
2022/02/11 05:35:49;;;;;;;48.83;27.67;;;;;;;-0.12;68.37;100914.00;5047189;28;20110;-21
2022/02/11 05:38:15;;;;;;;56.53;39.13;;;;;;;0.32;66.39;100906.78;5047091;28;20499;-21
2022/02/11 05:40:40;;;;;;;52.38;37.05;;;;;;;-0.10;68.33;100901.59;5028974;28;20033;-21
2022/02/11 05:43:06;;;;;;;59.60;39.10;;;;;;;0.32;66.77;100896.28;5047078;28;20750;-21
2022/02/11 05:45:31;;;;;;;57.88;41.10;;;;;;;0.32;66.40;100880.53;5046865;28;20029;-20
2022/02/11 05:47:57;;;;;;;47.05;33.40;;;;;;;0.28;66.44;100907.19;5047387;28;20045;-21
2022/02/11 05:50:22;;;;;;;69.03;40.33;;;;;;;-0.59;69.26;100897.81;5047111;28;20094;-21
2022/02/11 05:52:48;;;;;;;95.88;56.90;;;;;;;-0.69;71.87;100920.50;5049088;28;20459;-21
2022/02/11 05:55:13;;;;;;;96.30;51.72;;;;;;;-0.64;70.46;100924.38;5050563;28;20025;-21
2022/02/11 05:57:39;;;;;;;76.25;43.63;;;;;;;-0.13;68.12;100906.28;5051011;28;20047;-21
2022/02/11 06:00:05;;;;;;;91.22;45.33;;;;;;;-0.55;68.96;100917.56;5050313;28;20489;-21
2022/02/11 06:02:31;;;;;;;64.47;33.63;;;;;;;-0.62;68.47;100919.00;5050349;28;20028;-21
2022/02/11 06:04:56;;;;;;;57.60;31.73;;;;;;;-0.70;68.30;100911.78;5050435;28;20036;-21
2022/02/11 06:07:22;;;;;;;57.17;28.50;;;;;;;-0.41;67.49;100925.13;5050479;28;20072;-20
2022/02/11 06:09:47;;;;;;;32.90;19.30;;;;;;;-1.12;70.00;100929.19;5050596;28;20044;-21
2022/02/11 06:12:13;;;;;;;35.88;20.58;;;;;;;-0.52;68.02;100917.31;5050328;28;20025;-20
2022/02/11 06:14:38;;;;;;;33.38;19.27;;;;;;;-0.97;69.67;100929.72;5050055;28;20587;-21
2022/02/11 06:17:05;;;;;;;34.92;17.83;;;;;;;-0.97;70.61;100927.94;5050480;28;20563;-21
2022/02/11 06:19:30;;;;;;;35.20;17.58;;;;;;;-1.11;71.05;100915.13;5050310;28;20115;-21
2022/02/11 06:21:56;;;;;;;28.95;15.98;;;;;;;-0.31;68.84;100950.56;5050189;28;20036;-21
2022/02/11 06:24:21;;;;;;;31.02;19.30;;;;;;;-0.30;69.47;100941.75;5050238;28;20028;-21
2022/02/11 06:26:46;;;;;;;32.00;19.92;;;;;;;-0.49;70.15;100926.69;5049977;28;20032;-20
2022/02/11 06:29:13;;;;;;;40.47;21.98;;;;;;;-0.30;70.86;100942.59;5049768;28;20040;-21
2022/02/11 06:31:39;;;;;;;52.20;29.42;;;;;;;-0.14;71.54;100942.16;5050187;28;20049;-20
2022/02/11 06:34:06;;;;;;;131.80;59.13;;;;;;;-0.32;71.79;100941.88;5032132;28;20037;-21
2022/02/11 06:36:32;;;;;;;80.03;39.00;;;;;;;0.19;70.87;100919.28;5049904;28;20032;-21
2022/02/11 06:38:57;;;;;;;56.08;30.35;;;;;;;0.65;69.38;100938.94;5049821;28;20124;-21
2022/02/11 06:41:23;;;;;;;76.50;38.60;;;;;;;0.25;70.58;100952.06;5049913;28;20126;-20
2022/02/11 06:43:48;;;;;;;55.80;31.45;;;;;;;0.48;70.41;100942.22;5049537;28;20045;-21
2022/02/11 06:46:15;;;;;;;57.75;29.10;;;;;;;0.90;70.00;100949.94;5050034;28;20029;-20
2022/02/11 06:48:40;;;;;;;67.15;35.78;;;;;;;0.29;70.85;100930.66;5049786;28;20492;-21
2022/02/11 06:51:06;;;;;;;69.70;38.45;;;;;;;0.94;70.48;100938.19;5032016;28;20081;-21
2022/02/11 06:53:31;;;;;;;67.65;37.47;;;;;;;1.38;68.47;100943.94;5031787;28;20029;-21
2022/02/11 06:55:57;;;;;;;72.72;40.42;;;;;;;1.66;68.32;100944.94;5049560;28;20029;-21
2022/02/11 06:58:22;;;;;;;111.60;68.65;;;;;;;1.50;69.45;100945.47;5049621;28;20106;-20
2022/02/11 07:00:49;;;;;;;75.75;47.30;;;;;;;1.45;70.15;100944.22;5030903;28;20056;-20
2022/02/11 07:03:15;;;;;;;89.38;52.15;;;;;;;1.40;70.57;100926.25;5030649;28;20055;-21
2022/02/11 07:05:40;;;;;;;58.60;38.33;;;;;;;2.20;68.69;100946.06;5049125;28;20548;-20
2022/02/11 07:08:06;;;;;;;46.45;27.85;;;;;;;2.18;69.40;100926.13;5049266;28;20504;-21
2022/02/11 07:10:32;;;;;;;43.92;26.73;;;;;;;2.42;68.71;100930.91;5049154;28;20036;-23
2022/02/11 07:12:57;;;;;;;41.92;26.80;;;;;;;2.12;69.27;100918.81;5049033;28;20043;-21
2022/02/11 07:15:23;;;;;;;44.28;26.48;;;;;;;2.34;69.32;100936.91;5049794;28;20032;-21
2022/02/11 07:17:48;;;;;;;42.03;25.10;;;;;;;2.74;68.21;100941.03;5049266;28;20090;-21
2022/02/11 07:20:14;;;;;;;41.75;26.63;;;;;;;2.89;67.60;100911.56;5049147;28;20033;-21
2022/02/11 07:22:39;;;;;;;38.78;25.02;;;;;;;3.01;67.90;100936.72;5048963;28;20092;-21
2022/02/11 07:25:09;;;;;;;41.50;24.58;;;;;;;3.11;67.91;100936.69;5031296;28;20476;-21
2022/02/11 07:27:35;;;;;;;38.78;23.65;;;;;;;3.45;66.36;100934.19;5031440;28;20050;-20
2022/02/11 07:30:00;;;;;;;37.20;22.13;;;;;;;3.01;67.54;100913.03;5049129;28;20028;-20
2022/02/11 07:32:27;;;;;;;36.10;22.63;;;;;;;3.07;67.49;100909.78;5048786;28;20484;-21
2022/02/11 07:34:53;;;;;;;40.13;23.02;;;;;;;3.47;67.24;100929.59;5048889;28;20025;-21
2022/02/11 07:37:19;;;;;;;40.50;25.10;;;;;;;3.40;68.68;100925.91;5031184;28;20051;-20
2022/02/11 07:39:45;;;;;;;39.45;22.90;;;;;;;3.41;68.26;100919.66;5048777;28;20531;-21
2022/02/11 07:42:10;;;;;;;41.28;23.30;;;;;;;3.61;69.08;100931.69;5048775;28;20025;-20
2022/02/11 07:44:36;;;;;;;35.92;22.80;;;;;;;4.02;67.08;100932.03;5048428;28;20114;-22
2022/02/11 07:47:01;;;;;;;38.42;22.10;;;;;;;3.98;66.98;100932.47;5048876;28;20037;-21
2022/02/11 07:49:27;;;;;;;33.67;20.45;;;;;;;3.93;68.03;100930.31;5048801;28;20115;-20
2022/02/11 07:51:52;;;;;;;35.97;21.30;;;;;;;3.87;70.01;100933.56;5048800;28;20032;-21
2022/02/11 07:54:18;;;;;;;36.03;20.80;;;;;;;3.77;69.35;100925.72;5048659;28;20036;-20
2022/02/11 07:56:43;;;;;;;36.33;21.25;;;;;;;4.10;68.88;100933.06;5048152;28;20040;-21
2022/02/11 07:59:09;;;;;;;36.97;21.33;;;;;;;4.31;68.18;100915.03;5048723;28;20056;-20
2022/02/11 08:01:34;;;;;;;34.08;21.63;;;;;;;4.72;66.64;100922.31;5048478;28;20033;-21
2022/02/11 08:04:00;;;;;;;33.25;21.45;;;;;;;4.82;67.89;100918.56;5048459;28;20037;-21
2022/02/11 08:06:25;;;;;;;35.00;20.90;;;;;;;4.68;67.60;100916.53;5048193;28;20033;-20
2022/02/11 08:08:51;;;;;;;32.83;20.35;;;;;;;4.70;67.89;100903.13;5048666;28;20036;-21
2022/02/11 08:11:16;;;;;;;34.63;21.15;;;;;;;5.06;67.34;100918.78;5048183;28;20029;-20
2022/02/11 08:13:42;;;;;;;34.47;20.75;;;;;;;5.34;66.85;100921.97;5048542;28;20035;-21
2022/02/11 08:16:07;;;;;;;32.40;21.25;;;;;;;5.54;65.19;100918.03;5048074;28;20068;-20
2022/02/11 08:18:33;;;;;;;37.10;23.60;;;;;;;5.39;66.84;100909.06;5047950;28;20036;-21
2022/02/11 08:20:59;;;;;;;34.53;21.77;;;;;;;5.54;65.98;100902.16;5048169;28;20043;-21
2022/02/11 08:23:25;;;;;;;34.42;22.33;;;;;;;5.46;66.74;100885.47;5048099;28;20170;-20
2022/02/11 08:25:51;;;;;;;35.03;21.67;;;;;;;5.50;65.98;100902.66;5047856;28;20129;-21
2022/02/11 08:28:17;;;;;;;33.13;20.33;;;;;;;5.94;66.07;100899.63;5048286;28;20468;-21
2022/02/11 08:30:44;;;;;;;29.35;19.63;;;;;;;5.94;64.37;100900.47;5047892;28;20564;-21
2022/02/11 08:33:09;;;;;;;26.65;18.40;;;;;;;5.92;64.47;100898.97;5047872;28;20033;-21
2022/02/11 08:35:35;;;;;;;28.13;19.27;;;;;;;5.99;64.59;100869.06;5048074;28;20090;-20
2022/02/11 08:38:00;;;;;;;31.83;18.60;;;;;;;6.15;65.39;100897.31;5047936;28;20032;-21
2022/02/11 08:40:26;;;;;;;33.00;20.63;;;;;;;6.44;62.46;100891.44;5047381;28;20044;-21
2022/02/11 08:42:52;;;;;;;29.23;20.23;;;;;;;6.81;61.94;100889.13;5048000;28;20104;-21
2022/02/11 08:45:17;;;;;;;33.22;19.35;;;;;;;6.95;62.32;100891.03;5047801;28;20041;-20
2022/02/11 08:47:43;;;;;;;34.15;21.88;;;;;;;6.96;62.75;100886.53;5047686;28;20044;-22
2022/02/11 08:50:14;;;;;;;40.40;23.45;;;;;;;7.11;59.96;100889.25;5048161;28;20052;-21
2022/02/11 08:52:40;;;;;;;33.72;22.58;;;;;;;7.08;61.46;100890.44;5047507;28;20025;-21
2022/02/11 08:55:06;;;;;;;31.95;21.83;;;;;;;7.19;62.20;100886.56;5047497;28;20040;-20
2022/02/11 08:57:32;;;;;;;43.67;25.67;;;;;;;7.43;61.88;100888.22;5047997;28;20044;-21
2022/02/11 08:59:58;;;;;;;30.90;20.20;;;;;;;7.61;62.01;100885.25;5047544;28;20452;-21
2022/02/11 09:02:23;;;;;;;34.08;21.05;;;;;;;7.64;61.98;100879.56;5047719;28;20036;-22
2022/02/11 09:04:51;;;;;;;29.77;19.55;;;;;;;8.00;61.01;100886.88;5047790;28;20029;-21
2022/02/11 09:07:18;;;;;;;33.08;20.02;;;;;;;8.14;59.34;100864.00;5047409;28;20029;-20
2022/02/11 09:09:44;;;;;;;26.90;17.75;;;;;;;7.98;59.70;100870.28;5047389;28;20393;-21
2022/02/11 09:12:09;;;;;;;29.20;19.23;;;;;;;8.70;58.51;100859.00;5047753;28;20090;-21
2022/02/11 09:14:34;;;;;;;28.77;18.70;;;;;;;8.82;57.86;100869.97;5047548;28;20033;-20
2022/02/11 09:17:00;;;;;;;28.17;18.73;;;;;;;9.03;57.88;100861.19;5029636;28;20025;-20
2022/02/11 09:19:25;;;;;;;25.60;17.58;;;;;;;9.01;57.21;100866.72;5047481;28;20028;-21
2022/02/11 09:21:51;;;;;;;25.50;18.38;;;;;;;9.25;55.67;100854.03;5047401;28;20587;-21
2022/02/11 09:24:16;;;;;;;25.38;17.48;;;;;;;9.71;55.35;100856.28;5047052;28;20091;-20
2022/02/11 09:26:42;;;;;;;27.67;18.45;;;;;;;9.90;55.65;100859.28;5047654;28;20044;-20
2022/02/11 09:29:07;;;;;;;27.23;17.70;;;;;;;9.90;54.62;100849.44;5051207;28;20047;-20
2022/02/11 09:31:33;;;;;;;28.17;18.02;;;;;;;9.70;54.87;100827.97;5051208;28;20044;-21
2022/02/11 09:34:05;;;;;;;27.67;18.42;;;;;;;10.06;53.36;100846.47;5033228;28;20064;-21
2022/02/11 09:36:33;;;;;;;30.02;19.00;;;;;;;10.23;53.42;100843.47;5050791;28;20029;-20
2022/02/11 09:39:00;;;;;;;26.70;18.10;;;;;;;10.55;52.29;100835.84;5050750;28;20029;-20
2022/02/11 09:41:25;;;;;;;27.52;18.00;;;;;;;11.14;51.38;100827.16;5051223;28;20574;-20
2022/02/11 09:43:51;;;;;;;29.27;18.88;;;;;;;11.62;50.77;100820.78;5033272;28;20032;-21
2022/02/11 09:46:17;;;;;;;24.27;17.73;;;;;;;11.57;49.95;100812.59;5016382;28;20437;-21
2022/02/11 09:48:42;;;;;;;23.63;15.65;;;;;;;11.90;47.95;100825.94;5032843;28;20090;-20
2022/02/11 09:51:08;;;;;;;20.45;12.98;;;;;;;11.73;45.94;100822.84;5050696;28;20381;-20
2022/02/11 09:53:33;;;;;;;21.17;13.80;;;;;;;11.82;45.69;100815.44;5032816;28;20098;-20
2022/02/11 09:55:59;;;;;;;18.83;12.80;;;;;;;11.85;44.35;100820.38;5050920;28;20259;-21
2022/02/11 09:58:24;;;;;;;22.73;13.82;;;;;;;12.43;45.25;100807.03;5050926;28;20495;-21
2022/02/11 10:00:50;;;;;;;20.10;13.73;;;;;;;12.85;44.31;100798.56;5050570;28;20061;-21
2022/02/11 10:03:32;;;;;;;20.38;14.32;;;;;;;13.10;44.22;100805.81;5032925;28;20033;-21
2022/02/11 10:06:06;;;;;;;19.58;14.55;;;;;;;13.40;43.48;100806.00;5050292;28;20036;-21
2022/02/11 10:08:36;;;;;;;19.20;13.32;;;;;;;12.94;43.48;100793.78;5050642;28;20032;-21
2022/02/11 10:11:03;;;;;;;19.55;13.80;;;;;;;13.19;43.03;100788.44;5050612;28;20059;-20
2022/02/11 10:13:30;;;;;;;17.95;13.63;;;;;;;12.97;43.87;100780.75;5050656;28;20033;-20
2022/02/11 10:16:01;;;;;;;19.13;14.20;;;;;;;13.60;44.95;100787.91;5050620;28;20028;-21
2022/02/11 10:18:31;;;;;;;21.65;14.63;;;;;;;13.10;44.51;100774.50;5050115;28;20480;-20
2022/02/11 10:21:00;;;;;;;20.40;13.95;;;;;;;13.10;45.13;100785.22;5050481;28;20037;-20
2022/02/11 10:23:29;;;;;;;18.95;14.07;;;;;;;13.16;45.07;100778.19;5050349;28;20044;-21
2022/02/11 10:25:54;;;;;;;;;;;;;;;13.00;45.55;100775.00;5050759;28;20447;-21
2022/02/11 10:28:49;;;;;;;18.88;13.07;;;;;;;13.61;44.37;100764.63;5050164;28;19939;-20
2022/02/11 10:31:20;;;;;;;18.17;12.13;;;;;;;13.70;44.02;100749.06;5050124;28;20025;-20
2022/02/11 10:34:08;;;;;;;17.40;11.82;;;;;;;13.74;44.40;100760.97;5050153;28;20021;-21
2022/02/11 10:36:40;;;;;;;;;;;;;;;14.05;41.02;100750.06;5050087;28;20029;-21
2022/02/11 10:39:25;;;;;;;17.85;11.82;;;;;;;14.49;41.51;100741.88;5049566;28;19913;-21
2022/02/11 10:41:53;;;;;;;13.68;8.73;;;;;;;14.89;38.45;100735.13;5050119;28;20078;-20
2022/02/11 10:44:20;;;;;;;11.43;7.75;;;;;;;14.96;37.99;100733.16;5049892;28;20110;-20
2022/02/11 10:46:50;;;;;;;12.98;8.50;;;;;;;15.29;37.03;100711.09;5049767;28;20040;-21
2022/02/11 10:49:16;;;;;;;12.48;8.80;;;;;;;15.46;35.38;100727.31;5049976;28;20488;-20
2022/02/11 10:51:50;;;;;;;13.57;8.48;;;;;;;15.91;34.74;100729.38;5049473;28;20116;-20
2022/02/11 10:54:25;;;;;;;11.30;7.55;;;;;;;16.40;34.27;100729.00;5049971;28;20140;-21
2022/02/11 10:56:54;;;;;;;11.20;7.68;;;;;;;16.95;32.87;100728.34;5049759;28;20029;-20
2022/02/11 10:59:33;;;;;;;11.00;7.85;;;;;;;16.71;35.06;100706.09;5049522;28;20061;-20
2022/02/11 11:02:03;;;;;;;11.10;8.00;;;;;;;16.12;34.50;100717.19;5049296;28;20032;-20
2022/02/11 11:04:28;;;;;;;10.00;7.28;;;;;;;15.99;34.57;100709.38;5049093;28;20037;-20
2022/02/11 11:06:54;;;;;;;10.65;7.53;;;;;;;15.99;33.80;100714.75;5049674;28;20415;-20
2022/02/11 11:09:20;;;;;;;11.13;7.03;;;;;;;16.28;33.69;100696.72;5049697;28;20419;-20
2022/02/11 11:11:45;;;;;;;24.75;16.70;;;;;;;16.61;33.25;100687.06;5049256;28;20082;-21
2022/02/11 11:14:16;;;;;;;56.13;28.67;;;;;;;17.03;34.25;100705.56;5049324;28;20025;-20
2022/02/11 11:16:42;;;;;;;19.38;12.65;;;;;;;16.51;33.73;100685.06;5048998;28;20033;-20
2022/02/11 11:19:08;;;;;;;11.82;6.47;;;;;;;16.30;32.93;100677.66;5049472;28;20465;-20
2022/02/11 11:21:39;;;;;;;10.27;5.82;;;;;;;16.70;31.10;100688.31;5031355;28;20036;-20
2022/02/11 11:24:04;;;;;;;7.25;4.22;;;;;;;16.91;30.85;100688.69;5015859;28;20032;-20
2022/02/11 11:26:55;;;;;;;7.40;3.70;;;;;;;16.30;29.23;100651.56;5031569;28;20040;-20
2022/02/11 11:29:20;;;;;;;13.73;5.80;;;;;;;17.70;29.33;100680.34;5031644;28;20392;-20
2022/02/11 11:31:58;;;;;;;7.32;5.07;;;;;;;17.02;30.19;100661.66;5048823;28;20036;-20
2022/02/11 11:34:25;;;;;;;7.75;4.43;;;;;;;17.71;29.55;100681.16;5048923;28;20078;-22
2022/02/11 11:36:51;;;;;;;9.13;5.75;;;;;;;17.85;29.47;100660.84;5048893;28;20462;-20
2022/02/11 11:39:18;;;;;;;40.53;18.40;;;;;;;18.26;29.71;100661.28;5048995;28;20029;-20
2022/02/11 11:41:44;;;;;;;23.17;12.00;;;;;;;18.89;28.81;100658.88;5048750;28;20024;-21
2022/02/11 11:44:20;;;;;;;70.05;32.90;;;;;;;19.07;28.20;100665.75;5031066;28;20033;-20
2022/02/11 11:46:52;;;;;;;19.48;11.70;;;;;;;18.47;29.43;100646.91;5048702;28;20040;-20
2022/02/11 11:49:21;;;;;;;8.95;6.00;;;;;;;18.60;28.28;100653.75;5048319;28;20040;-21
2022/02/11 11:51:46;;;;;;;8.25;5.38;;;;;;;18.72;28.84;100658.19;5048440;28;20033;-20
2022/02/11 11:56:58;;;;;;;8.10;5.32;;;;;;;18.73;27.82;100644.38;5048382;28;20037;-20
2022/02/11 11:59:25;;;;;;;32.05;14.77;;;;;;;18.37;29.60;100630.63;5048647;28;20053;-20
2022/02/11 12:02:01;;;;;;;23.55;10.45;;;;;;;18.00;29.33;100630.50;5048529;28;20036;-20
2022/02/11 12:04:38;;;;;;;12.57;7.82;;;;;;;18.97;27.04;100639.47;5030150;28;20035;-20
2022/02/11 12:07:08;;;;;;;13.25;7.03;;;;;;;19.08;27.98;100634.91;5048472;28;20056;-20
2022/02/11 12:09:34;;;;;;;9.60;5.68;;;;;;;19.10;28.00;100624.66;5048386;28;20068;-20
2022/02/11 12:12:07;;;;;;;23.13;12.43;;;;;;;19.71;26.42;100626.03;5048249;28;20477;-20
2022/02/11 12:14:35;;;;;;;10.48;6.70;;;;;;;20.01;24.96;100619.91;5047942;28;20037;-21
2022/02/11 12:17:02;;;;;;;15.40;9.02;;;;;;;19.44;27.53;100616.19;5048086;28;20029;-20
2022/02/11 12:19:28;;;;;;;10.87;5.57;;;;;;;19.98;25.88;100618.53;5030340;28;20102;-20
2022/02/11 12:21:53;;;;;;;13.38;7.68;;;;;;;20.95;24.91;100611.50;5048166;28;20086;-20
2022/02/11 12:27:22;;;;;;;10.23;5.80;;;;;;;21.21;24.03;100596.78;5047762;28;20043;-21
2022/02/11 12:29:52;;;;;;;7.97;5.28;;;;;;;21.38;23.49;100593.72;5047696;28;20392;-20
2022/02/11 12:32:24;;;;;;;13.25;7.70;;;;;;;20.83;25.96;100593.63;5047903;28;20086;-20
2022/02/11 12:34:51;;;;;;;10.80;6.22;;;;;;;20.83;25.37;100607.19;5047992;28;20078;-21
2022/02/11 12:37:18;;;;;;;8.73;6.22;;;;;;;20.00;26.42;100586.59;5047929;28;20083;-20
2022/02/11 12:39:44;;;;;;;9.13;5.63;;;;;;;21.11;24.44;100591.38;5047695;28;20057;-21
2022/02/11 12:42:09;;;;;;;9.25;5.60;;;;;;;20.59;24.93;100592.56;5047556;28;20025;-20
2022/02/11 12:44:35;;;;;;;26.52;15.15;;;;;;;20.20;24.08;100595.81;5047507;28;20036;-21
2022/02/11 12:47:01;;;;;;;7.78;3.60;;;;;;;21.19;22.33;100579.97;5047986;28;20028;-19
2022/02/11 12:49:27;;;;;;;43.75;23.52;;;;;;;20.83;25.43;100580.06;5047849;28;20040;-20
2022/02/11 12:51:54;;;;;;;15.27;7.35;;;;;;;21.34;23.55;100592.66;5030004;28;20120;-20
2022/02/11 12:54:20;;;;;;;7.73;4.40;;;;;;;20.78;23.86;100580.09;5047878;28;20039;-20
2022/02/11 12:56:46;;;;;;;6.32;3.88;;;;;;;21.36;22.93;100566.06;5047428;28;20033;-20
2022/02/11 12:59:11;;;;;;;9.02;4.38;;;;;;;21.56;23.24;100578.75;5047550;28;20443;-19
2022/02/11 13:01:37;;;;;;;6.63;3.78;;;;;;;22.06;21.68;100565.91;5049822;28;20116;-20
2022/02/11 13:04:03;;;;;;;12.02;6.80;;;;;;;22.66;23.48;100567.63;5051837;28;20094;-20
2022/02/11 13:06:33;;;;;;;8.20;4.47;;;;;;;22.37;21.75;100571.16;5051616;28;20104;-20
2022/02/11 13:09:01;;;;;;;7.90;4.80;;;;;;;22.60;22.16;100568.75;5052068;28;20356;-20
2022/02/11 13:11:27;;;;;;;7.38;4.43;;;;;;;23.01;21.68;100557.44;5051496;28;20511;-21
2022/02/11 13:14:06;;;;;;;7.63;5.05;;;;;;;23.03;21.45;100560.72;5051952;28;20060;-20
2022/02/11 13:16:33;;;;;;;15.27;8.48;;;;;;;22.53;23.54;100550.06;5051451;28;20021;-21
2022/02/11 13:19:12;;;;;;;7.77;5.23;;;;;;;21.86;23.55;100538.91;5033921;28;20064;-20
2022/02/11 13:21:38;;;;;;;17.48;8.32;;;;;;;23.20;22.97;100547.44;5033296;28;20290;-20
2022/02/11 13:24:04;;;;;;;11.05;5.93;;;;;;;23.19;22.35;100545.00;5033687;28;20020;-21
2022/02/11 13:26:30;;;;;;;7.85;4.85;;;;;;;23.88;21.13;100544.59;5051390;28;20037;-20
2022/02/11 13:28:56;;;;;;;7.03;4.22;;;;;;;23.19;21.88;100540.38;5051441;28;20480;-20
2022/02/11 13:31:22;;;;;;;7.30;4.70;;;;;;;23.36;22.25;100541.78;5051225;28;20025;-20
2022/02/11 13:34:01;;;;;;;6.97;4.38;;;;;;;23.56;22.45;100529.78;5051431;28;20071;-20
2022/02/11 13:36:27;;;;;;;8.65;5.93;;;;;;;24.26;22.03;100542.63;5050437;28;20095;-21
2022/02/11 13:38:52;;;;;;;10.43;6.22;;;;;;;24.01;23.26;100541.94;5051289;28;20396;-20
2022/02/11 13:41:25;;;;;;;18.48;8.70;;;;;;;24.08;22.97;100552.44;5051266;28;20511;-20
2022/02/11 13:43:53;;;;;;;9.80;5.18;;;;;;;25.03;21.79;100560.31;5051242;28;20496;-21
2022/02/11 13:46:31;;;;;;;8.85;6.40;;;;;;;25.54;21.05;100564.72;5050898;28;20047;-20
2022/02/11 13:48:58;;;;;;;19.55;10.25;;;;;;;26.64;20.09;100565.34;5050863;28;20037;-21
2022/02/11 13:51:24;;;;;;;29.45;14.43;;;;;;;27.69;19.50;100550.03;5050678;28;20780;-20
2022/02/11 13:53:54;;;;;;;110.78;51.63;;;;;;;28.51;18.66;100555.56;5050981;28;20036;-20
2022/02/11 13:56:28;;;;;;;92.18;42.53;;;;;;;28.70;17.59;100568.91;5050740;28;20041;-21
2022/02/11 13:59:10;;;;;;;25.65;15.18;;;;;;;29.40;17.22;100565.78;5050940;28;20049;-20
2022/02/11 14:01:39;;;;;;;67.60;36.33;;;;;;;29.17;17.24;100566.09;5050868;28;20041;-20
2022/02/11 14:04:17;;;;;;;71.97;41.55;;;;;;;29.65;17.52;100562.06;5050921;28;20535;-19
2022/02/11 14:06:48;;;;;;;;;;;;;;;30.07;17.11;100557.69;5051025;28;20043;-20
2022/02/11 14:09:35;;;;;;;13.45;7.50;;;;;;;29.34;17.91;100553.41;5050771;28;20023;-20
2022/02/11 14:12:01;;;;;;;;;;;;;;;30.74;16.69;100559.22;5050973;28;20112;-21
2022/02/11 14:14:27;;;;;;;32.10;21.13;;;;;;;31.78;16.01;100547.84;5049677;28;19999;-21
2022/02/11 14:16:55;;;;;;;46.95;27.75;;;;;;;33.05;14.92;100556.25;5050342;28;20032;-21
2022/02/11 14:19:24;;;;;;;;;;;;;;;32.68;15.15;100559.31;5050323;28;20127;-20
2022/02/11 14:21:50;;;;;;;29.40;18.17;;;;;;;32.31;15.15;100556.78;5050249;28;20003;-20
2022/02/11 14:24:16;;;;;;;17.20;10.20;;;;;;;33.70;14.12;100549.41;5050327;28;20021;-20
2022/02/11 14:26:42;;;;;;;55.40;32.97;;;;;;;32.72;15.36;100538.13;5050174;28;20049;-21
2022/02/11 14:29:07;;;;;;;14.90;9.63;;;;;;;32.01;15.84;100540.63;5050240;28;20037;-20
2022/02/11 14:31:33;;;;;;;10.25;6.15;;;;;;;29.96;18.01;100547.09;5050139;28;20095;-20
2022/02/11 14:33:58;;;;;;;15.88;9.68;;;;;;;31.69;16.27;100547.16;5049943;28;20083;-20
2022/02/11 14:36:23;;;;;;;23.05;13.88;;;;;;;31.42;16.44;100549.53;5050077;28;20037;-20
2022/02/11 14:38:53;;;;;;;19.30;13.27;;;;;;;30.27;17.26;100545.00;5049729;28;20033;-20
2022/02/11 14:44:02;;;;;;;8.90;5.75;;;;;;;30.01;17.44;100552.38;5049915;28;20039;-21
2022/02/11 14:46:28;;;;;;;15.15;9.43;;;;;;;30.43;17.22;100537.75;5050244;28;20033;-20
2022/02/11 14:48:54;;;;;;;12.30;7.88;;;;;;;29.17;18.09;100538.63;5049746;28;20025;-20
2022/02/11 14:51:20;;;;;;;17.83;12.82;;;;;;;29.55;18.29;100534.19;5049479;28;20485;-20
2022/02/11 14:53:46;;;;;;;13.90;10.38;;;;;;;28.85;18.45;100538.16;5049656;28;20518;-20
2022/02/11 14:56:11;;;;;;;59.17;39.53;;;;;;;26.88;20.91;100536.81;5049717;28;20037;-20
2022/02/11 14:58:36;;;;;;;30.63;19.38;;;;;;;24.45;23.88;100520.75;5049082;28;20079;-22
2022/02/11 15:01:05;;;;;;;13.25;8.13;;;;;;;22.32;26.29;100519.56;5049342;28;20106;-20
2022/02/11 15:03:31;;;;;;;15.88;10.40;;;;;;;20.47;29.79;100525.94;5031619;28;20029;-20
2022/02/11 15:05:56;;;;;;;15.70;10.00;;;;;;;19.57;31.27;100518.28;5048904;28;20033;-20
2022/02/11 15:08:22;;;;;;;16.25;9.30;;;;;;;18.82;33.10;100520.47;5049424;28;20024;-20
2022/02/11 15:10:47;;;;;;;12.23;7.75;;;;;;;18.75;33.05;100520.66;5049423;28;20032;-21
2022/02/11 15:13:13;;;;;;;9.65;5.85;;;;;;;17.61;35.23;100518.16;5049109;28;20025;-21
2022/02/11 15:15:40;;;;;;;12.25;7.40;;;;;;;17.42;35.59;100495.31;5048952;28;20064;-20
2022/02/11 15:18:06;;;;;;;15.25;10.30;;;;;;;17.50;36.17;100513.72;5049335;28;20020;-20
2022/02/11 15:20:38;;;;;;;22.65;14.05;;;;;;;17.40;35.97;100516.31;5048627;28;20423;-19
2022/02/11 15:23:03;;;;;;;27.35;16.88;;;;;;;17.16;36.63;100513.06;5048760;28;20040;-20
2022/02/11 15:25:33;;;;;;;100.97;61.92;;;;;;;16.92;37.25;100496.31;5047819;28;20049;-21
2022/02/11 15:27:58;;;;;;;112.00;72.10;;;;;;;16.95;37.54;100490.44;5048963;28;20180;-20